map of NAV home
NAV - Airport
Location
City:  Nevsehir, Nevsehir, Turkey
Name:Nevsehir Kapadokya Airport
ICAO:LTAZ
IATA:NAV

Details
Type:Airport (Aerodrome, Airfield)
Latitude:3846'19"N (38.771867)
Longitude:3432'04"E (34.534550)
Datum:WGS 1984
Elevation:3100 ft (945 m)
Variation:5.72E (WMM2015v2 magnetic declination)
0.09 annual change
Runways:1
Longest:9842 × 148 ft (3000 × 45 m), paved

Time
Time Zone:UTC+3
Local Time:

Weather
METAR:LTAZ 041350Z 10005KT CAVOK 14/M01 Q1022 RMK RWY29 09006KT

Related Locations
Nearby:
Farthest:RVV: 11396 mi / 18340 km
Raivavae, Tubuai Islands, Austral Islands, PF

Find:

   beyond  
but within

Other Information
Maps:
NOTAMs:
Links:
Sources:

  
  • flag of Turkey
  

Sectional Chart

Flight Planning
at skyvector.com

Satellite Image

Google Maps Satellite view

 

Copyright © 2004-2019 Karl L. Swartz. All rights reserved.
The Great Circle Mapper name and logo are trademarks of the Great Circle Mapper.
All other trademarks mentioned herein belong to their respective owners.
Please see credits for attibutions and further copyright information.

  Follow gcmap on Facebook Follow gcmap on Twitter GCmap on LinkedIn

hCard Microformat

Geo Microformat